Auburn, KS (66402)

10:59 AM CDT on August 22, 2017 (GMT -0500)
South Pointe Bay Estates | | Change Station
Active Advisory: Flood Warning Active Notice: Public Information Statement

Elev 1096 ft 38.95 °N, 95.80 °W | Updated 1 minute ago

Partly Cloudy
Partly Cloudy
76.7 °F
Feels Like 78 °F
N
0.0
Wind Variable Wind from NNW
Gusts 0.0 mph

Today
High -- | Low -- °F
--% Chance of Precip.
Yesterday
High -- | Low -- °F
Precip. -- in
Pressure 30.10 in
Visibility 10.0 miles
Clouds Clear
Heat Index 78 °F
Dew Point 65 °F
Humidity 67%
Rainfall 0.00 in
Snow Depth Not available.
6:43 AM 8:07 PM
New Moon, 1% visible
METAR KFOE 221553Z 36011KT 10SM CLR 24/20 A3013 RMK AO2 SLP192 T02440200
Pressure 30.10 in
Visibility 10.0 miles
Clouds Clear
Heat Index 78 °F
Dew Point 65 °F
Humidity 67%
Rainfall 0.00 in
Snow Depth Not available.
6:43 AM 8:07 PM
New Moon, 1% visible
METAR KFOE 221553Z 36011KT 10SM CLR 24/20 A3013 RMK AO2 SLP192 T02440200

Get Your Daily Forecast Email!

Thanks for signing up!

Be on the lookout for a verification email in your inbox.

You'll start receiving severe weather alerts in your inbox..

×

10-Day Weather Forecast

Almanac

Astronomy

Aug. 22, 2017 Rise Set
Actual Time
Civil Twilight
Nautical Twilight
Astronomical Twilight
Moon
Length of Visible Light
Length of Day
Tomorrow will be .
, % of the Moon is Illuminated

Today's Extremes

State Highs State Lows

Community

WunderPhotos

Category 6

Welcome to Category 6. This is the collective home for Weather Underground's featured writeups by Dr. Jeff Masters (right), Bob Henson (left), Chris Burt, and other regular contributors.

Nearby

Air Quality

  Air Quality AQ Index Pollutant
Not available.

Snow Depth

Station Depth Elevation

Earthquake Activity

City Distance Mag. Time & Date
Minimum magnitude displayed is 2.5.

Coastal Water Temperatures

Place Temperature

Stations

Nearby Weather Stations

Station Location Temp. Windchill Dew Point Humidity Wind Precip. Elev Updated Type
                   

Watches & Warnings

Flood Warning
Issued: 9:45 AM CDT Aug. 22, 2017 – National Weather Service

The Flood Warning continues for
the Wakarusa river at Wakarusa.
* Until late tonight.
* At 9:00 am Tuesday the stage was 16.9 feet.
* Flood stage is 15.0 feet.
* Minor flooding is occurring and minor flooding is forecast.
* Forecast... the river will continue rising to near 18.0 feet by this
afternoon. The river will fall below flood stage late this
afternoon.


Lat... Lon 3890 9573 3890 9563 3887 9563 3887 9573